createdAt,value
2022-11-07T00:00:27.464Z,3.85
2022-11-07T00:02:54.081Z,3.40
2022-11-07T00:05:20.726Z,2.50
2022-11-07T00:07:47.275Z,3.20
2022-11-07T00:10:13.917Z,3.70
2022-11-07T00:12:40.447Z,3.38
2022-11-07T00:15:07.362Z,3.10
2022-11-07T00:17:33.920Z,2.88
2022-11-07T00:20:00.453Z,3.70
2022-11-07T00:22:27.024Z,3.47
2022-11-07T00:24:53.617Z,4.55
2022-11-07T00:27:20.230Z,4.13
2022-11-07T00:29:46.863Z,3.20
2022-11-07T00:32:13.476Z,2.60
2022-11-07T00:34:40.010Z,2.40
2022-11-07T00:37:06.596Z,3.08
2022-11-07T00:39:33.373Z,2.17
2022-11-07T00:41:59.890Z,2.47
2022-11-07T00:44:26.431Z,3.28
2022-11-07T00:46:52.959Z,2.53
2022-11-07T00:49:19.547Z,3.20
2022-11-07T00:51:46.099Z,3.95
2022-11-07T00:54:12.854Z,3.60
2022-11-07T00:56:39.503Z,4.35
2022-11-07T00:59:06.230Z,3.53
2022-11-07T01:01:33.706Z,3.50
2022-11-07T01:04:19.126Z,2.55
2022-11-07T01:06:46.741Z,2.88
2022-11-07T01:09:18.976Z,2.28
2022-11-07T01:11:45.921Z,3.17
2022-11-07T01:14:14.566Z,2.80
2022-11-07T01:16:41.988Z,3.50
2022-11-07T01:19:09.173Z,3.35
2022-11-07T01:21:38.508Z,2.35
2022-11-07T01:24:06.428Z,3.65
2022-11-07T01:26:32.981Z,3.10
2022-11-07T01:28:59.667Z,2.75
2022-11-07T01:31:26.285Z,2.95
2022-11-07T01:33:52.823Z,2.55
2022-11-07T01:36:19.418Z,3.22
2022-11-07T01:38:48.552Z,3.45
2022-11-07T01:41:21.894Z,2.90
2022-11-07T01:44:06.401Z,4.50
2022-11-07T01:46:44.987Z,3.05
2022-11-07T01:49:18.429Z,2.83
2022-11-07T01:54:13.468Z,3.05
2022-11-07T01:56:41.952Z,2.40
2022-11-07T01:59:09.465Z,2.63
2022-11-07T02:01:36.374Z,2.42
2022-11-07T02:04:03.787Z,2.20
2022-11-07T02:06:42.323Z,3.15
2022-11-07T02:09:09.320Z,2.92
2022-11-07T02:11:36.205Z,3.50
2022-11-07T02:14:02.804Z,2.95
2022-11-07T02:16:29.582Z,3.42
2022-11-07T02:18:56.457Z,2.50
2022-11-07T02:21:30.700Z,2.47
2022-11-07T02:24:06.663Z,2.22
2022-11-07T02:26:34.390Z,3.72
2022-11-07T02:29:02.526Z,2.88
2022-11-07T02:31:29.097Z,2.55
2022-11-07T02:33:55.662Z,3.13
2022-11-07T02:36:23.208Z,4.65
2022-11-07T02:38:57.410Z,3.10
2022-11-07T02:41:27.752Z,4.13
2022-11-07T02:43:58.919Z,2.25
2022-11-07T02:46:27.539Z,3.55
2022-11-07T02:48:59.043Z,2.63
2022-11-07T02:51:25.974Z,3.38
2022-11-07T02:53:53.030Z,2.67
2022-11-07T02:56:19.692Z,2.65
2022-11-07T02:58:46.367Z,2.83
2022-11-07T03:01:13.717Z,2.60
2022-11-07T03:03:43.490Z,3.00
2022-11-07T03:06:12.642Z,4.65
2022-11-07T03:08:39.360Z,2.40
2022-11-07T03:11:06.691Z,3.28
2022-11-07T03:13:33.328Z,3.40
2022-11-07T03:15:59.873Z,2.47
2022-11-07T03:18:27.006Z,3.38
2022-11-07T03:20:53.549Z,3.30
2022-11-07T03:23:20.089Z,3.45
2022-11-07T03:25:46.644Z,1.55
2022-11-07T03:28:13.197Z,3.92
2022-11-07T03:30:39.737Z,4.38
2022-11-07T03:33:06.593Z,3.83
2022-11-07T03:35:33.120Z,4.07
2022-11-07T03:37:59.682Z,2.30
2022-11-07T03:40:26.230Z,2.42
2022-11-07T03:42:52.861Z,3.67
2022-11-07T03:45:19.729Z,4.75
2022-11-07T03:47:46.540Z,3.90
2022-11-07T03:50:18.789Z,2.40
2022-11-07T03:52:45.679Z,2.95
2022-11-07T03:55:12.685Z,3.60
2022-11-07T03:57:39.277Z,2.88
2022-11-07T04:00:07.267Z,3.20
2022-11-07T04:02:33.999Z,4.55
2022-11-07T04:05:00.685Z,2.45
2022-11-07T04:07:27.278Z,2.22
2022-11-07T04:09:53.825Z,3.88
2022-11-07T04:12:38.574Z,2.78
2022-11-07T04:15:23.945Z,3.05
2022-11-07T04:17:50.501Z,2.47
2022-11-07T04:20:17.056Z,3.17
2022-11-07T04:22:43.602Z,3.78
2022-11-07T04:25:10.333Z,3.15
2022-11-07T04:27:42.424Z,2.13
2022-11-07T04:30:19.829Z,2.53
2022-11-07T04:32:47.626Z,3.67
2022-11-07T04:35:14.680Z,3.33
2022-11-07T04:37:41.721Z,3.70
2022-11-07T04:40:09.598Z,3.78
2022-11-07T04:42:36.326Z,3.15
2022-11-07T04:45:03.041Z,3.45
2022-11-07T04:47:29.609Z,2.85
2022-11-07T04:49:56.196Z,4.03
2022-11-07T04:52:22.756Z,2.70
2022-11-07T04:54:49.308Z,3.50
2022-11-07T04:57:15.859Z,3.85
2022-11-07T04:59:42.402Z,2.45
2022-11-07T05:02:12.606Z,2.70
2022-11-07T05:04:39.975Z,2.83
2022-11-07T05:07:07.444Z,1.95
2022-11-07T05:09:34.618Z,2.10
2022-11-07T05:12:02.998Z,4.75
2022-11-07T05:14:31.169Z,4.68
2022-11-07T05:16:57.909Z,3.20
2022-11-07T05:19:24.505Z,2.75
2022-11-07T05:22:14.009Z,3.72
2022-11-07T05:24:40.568Z,2.83
2022-11-07T05:27:07.245Z,2.67
2022-11-07T05:29:33.781Z,2.47
2022-11-07T05:32:00.345Z,3.80
2022-11-07T05:34:26.937Z,4.10
2022-11-07T05:36:53.492Z,2.13
2022-11-07T05:39:20.476Z,2.80
2022-11-07T05:41:47.018Z,4.05
2022-11-07T05:44:13.574Z,2.58
2022-11-07T05:46:40.118Z,3.17
2022-11-07T05:49:06.761Z,3.10
2022-11-07T05:51:33.372Z,3.42
2022-11-07T05:53:59.944Z,3.38
2022-11-07T05:56:26.485Z,3.03
2022-11-07T05:58:53.027Z,2.78
2022-11-07T06:01:19.580Z,3.03
2022-11-07T06:03:46.140Z,3.17
2022-11-07T06:06:12.681Z,3.60
2022-11-07T06:08:39.217Z,2.20
2022-11-07T06:11:06.154Z,2.08
2022-11-07T06:13:32.721Z,2.28
2022-11-07T06:15:59.261Z,2.90
2022-11-07T06:18:25.820Z,3.45
2022-11-07T06:20:52.508Z,3.08
2022-11-07T06:23:20.057Z,3.40
2022-11-07T06:25:47.017Z,2.85
2022-11-07T06:28:14.823Z,3.45
2022-11-07T06:30:41.943Z,2.55
2022-11-07T06:33:12.050Z,3.38
2022-11-07T06:35:38.738Z,2.30
2022-11-07T06:38:07.448Z,2.88
2022-11-07T06:40:34.145Z,2.63
2022-11-07T06:43:26.896Z,3.42
2022-11-07T06:45:53.457Z,3.10
2022-11-07T06:48:19.989Z,2.72
2022-11-07T06:50:46.532Z,3.65
2022-11-07T06:53:14.499Z,2.35
2022-11-07T06:55:41.420Z,1.73
2022-11-07T06:58:07.995Z,2.17
2022-11-07T07:00:37.375Z,3.40
2022-11-07T07:03:04.920Z,2.58
2022-11-07T07:05:33.291Z,2.75
2022-11-07T07:07:59.870Z,2.45
2022-11-07T07:10:26.624Z,3.55
2022-11-07T07:12:54.688Z,2.72
2022-11-07T07:15:21.581Z,2.13
2022-11-07T07:17:48.477Z,1.88
2022-11-07T07:20:15.087Z,2.63
2022-11-07T07:22:41.629Z,2.25
2022-11-07T07:25:08.943Z,2.53
2022-11-07T07:27:35.492Z,3.47
2022-11-07T07:30:02.034Z,1.33
2022-11-07T07:32:28.589Z,2.08
2022-11-07T07:34:55.129Z,1.75
2022-11-07T07:37:21.732Z,1.67
2022-11-07T07:39:48.329Z,2.60
2022-11-07T07:42:14.868Z,2.85
2022-11-07T07:44:41.410Z,2.65
2022-11-07T07:47:11.322Z,3.45
2022-11-07T07:49:38.308Z,2.22
2022-11-07T07:52:05.214Z,2.17
2022-11-07T07:54:31.860Z,2.88
2022-11-07T07:56:58.421Z,5.15
2022-11-07T07:59:24.966Z,4.43
2022-11-07T08:01:56.590Z,7.38
2022-11-07T08:04:23.881Z,6.53
2022-11-07T08:06:50.425Z,6.97
2022-11-07T08:09:16.997Z,8.57
2022-11-07T08:11:43.617Z,7.95
2022-11-07T08:14:11.589Z,9.13
2022-11-07T08:16:38.197Z,6.93
2022-11-07T08:19:04.748Z,8.27
2022-11-07T08:21:31.375Z,6.88
2022-11-07T08:23:58.024Z,7.40
2022-11-07T08:26:24.649Z,8.60
2022-11-07T08:28:53.688Z,7.07
2022-11-07T08:31:20.264Z,6.15
2022-11-07T08:33:46.862Z,6.40
2022-11-07T08:36:13.472Z,7.43
2022-11-07T08:38:40.022Z,10.45
2022-11-07T08:41:06.633Z,6.85
2022-11-07T08:43:33.233Z,8.65
2022-11-07T08:45:59.902Z,8.18
2022-11-07T08:48:26.472Z,6.15
2022-11-07T08:50:54.649Z,8.43
2022-11-07T08:53:21.974Z,8.48
2022-11-07T08:55:48.627Z,11.75
2022-11-07T08:58:15.484Z,7.40
2022-11-07T09:00:42.249Z,8.88
2022-11-07T09:03:44.406Z,7.53
2022-11-07T09:05:56.682Z,7.82
2022-11-07T09:08:23.378Z,5.50
2022-11-07T09:10:50.262Z,9.57
2022-11-07T09:13:17.421Z,6.82
2022-11-07T09:15:50.329Z,5.00
2022-11-07T09:18:17.843Z,6.80
2022-11-07T09:20:44.397Z,8.10
2022-11-07T09:23:10.942Z,7.93
2022-11-07T09:25:37.514Z,6.55
2022-11-07T09:28:04.467Z,6.38
2022-11-07T09:30:31.544Z,7.57
2022-11-07T09:32:58.338Z,6.03
2022-11-07T09:35:25.079Z,8.18
2022-11-07T09:37:51.843Z,5.97
2022-11-07T09:40:29.937Z,7.43
2022-11-07T09:43:39.968Z,6.18
2022-11-07T09:46:43.980Z,6.93
2022-11-07T09:49:27.726Z,8.80
2022-11-07T09:54:25.683Z,5.95
2022-11-07T09:56:52.990Z,5.63
2022-11-07T09:59:32.634Z,7.55
2022-11-07T10:01:59.195Z,7.43
2022-11-07T10:04:26.806Z,6.38
2022-11-07T10:07:04.653Z,6.53
2022-11-07T10:09:59.329Z,7.95
2022-11-07T10:12:49.578Z,5.55
2022-11-07T10:15:28.417Z,5.47
2022-11-07T10:18:15.297Z,6.63
2022-11-07T10:21:16.062Z,7.78
2022-11-07T10:23:54.199Z,7.45
2022-11-07T10:26:22.581Z,5.75
2022-11-07T10:29:15.387Z,5.88
2022-11-07T10:31:46.907Z,5.43
2022-11-07T10:34:31.625Z,8.13
2022-11-07T10:36:58.165Z,5.70
2022-11-07T10:39:24.713Z,5.80
2022-11-07T10:42:00.844Z,3.90
2022-11-07T10:44:29.281Z,6.93
2022-11-07T10:46:55.841Z,5.50
2022-11-07T10:49:23.940Z,8.07
2022-11-07T10:51:51.600Z,6.13
2022-11-07T10:54:26.324Z,6.00
2022-11-07T10:57:11.522Z,5.22
2022-11-07T10:59:41.131Z,5.45
2022-11-07T11:02:22.142Z,6.03
2022-11-07T11:05:00.375Z,4.90
2022-11-07T11:07:34.832Z,6.60
2022-11-07T11:10:01.639Z,4.45
2022-11-07T11:12:34.118Z,6.88
2022-11-07T11:15:14.776Z,4.18
2022-11-07T11:17:41.774Z,5.75
2022-11-07T11:20:31.758Z,5.93
2022-11-07T11:22:59.926Z,5.15
2022-11-07T11:25:26.639Z,6.35
2022-11-07T11:27:56.979Z,6.47
2022-11-07T11:30:24.364Z,6.53
2022-11-07T11:33:03.568Z,7.43
2022-11-07T11:35:42.349Z,6.63
2022-11-07T11:38:17.605Z,6.07
2022-11-07T11:40:48.750Z,6.43
2022-11-07T11:43:22.376Z,5.15
2022-11-07T11:46:05.246Z,5.35
2022-11-07T11:48:54.194Z,5.70
2022-11-07T11:51:52.958Z,3.38
2022-11-07T11:54:19.501Z,7.28
2022-11-07T11:56:58.093Z,8.00
2022-11-07T11:59:24.588Z,6.53
2022-11-07T12:02:15.243Z,4.15
2022-11-07T12:04:44.744Z,6.43
2022-11-07T12:07:32.249Z,4.90
2022-11-07T12:10:20.801Z,4.68
2022-11-07T12:13:10.520Z,5.68
2022-11-07T12:15:39.700Z,6.50
2022-11-07T12:18:38.276Z,5.00
2022-11-07T12:21:31.138Z,5.05
2022-11-07T12:24:23.035Z,3.75
2022-11-07T12:27:36.137Z,6.10
2022-11-07T12:30:27.506Z,5.43
2022-11-07T12:33:06.161Z,4.47
2022-11-07T12:35:38.618Z,3.95
2022-11-07T12:38:29.240Z,3.95
2022-11-07T12:41:13.896Z,6.00
2022-11-07T12:43:56.235Z,5.05
2022-11-07T12:46:45.892Z,5.43
2022-11-07T12:49:30.921Z,5.35
2022-11-07T12:52:34.361Z,5.72
2022-11-07T12:55:23.768Z,5.53
2022-11-07T12:57:53.013Z,5.45
2022-11-07T13:00:29.669Z,5.03
2022-11-07T13:03:16.860Z,4.28
2022-11-07T13:06:00.074Z,5.45
2022-11-07T13:08:35.219Z,4.70
2022-11-07T13:11:15.022Z,6.40
2022-11-07T13:14:23.925Z,5.78
2022-11-07T13:16:52.096Z,3.47
2022-11-07T13:19:33.697Z,5.45
2022-11-07T13:22:05.398Z,4.03
2022-11-07T13:24:33.645Z,5.57
2022-11-07T13:27:00.224Z,3.85
2022-11-07T13:29:37.719Z,6.55
2022-11-07T13:32:06.105Z,5.72
2022-11-07T13:34:58.040Z,4.57
2022-11-07T13:37:36.919Z,5.18
2022-11-07T13:40:26.319Z,3.15
2022-11-07T13:42:58.005Z,4.43
2022-11-07T13:45:31.905Z,3.85
2022-11-07T13:48:01.207Z,4.18
2022-11-07T13:50:39.439Z,4.88
2022-11-07T13:53:13.081Z,3.72
2022-11-07T13:55:50.582Z,3.83
2022-11-07T13:58:17.640Z,3.78
2022-11-07T14:00:44.414Z,4.00
2022-11-07T14:03:26.313Z,3.50
2022-11-07T14:05:54.577Z,4.15
2022-11-07T14:08:32.586Z,5.97
2022-11-07T14:10:59.556Z,5.15
2022-11-07T14:13:34.666Z,4.10
2022-11-07T14:16:17.233Z,5.13
2022-11-07T14:18:47.627Z,4.05
2022-11-07T14:21:42.279Z,5.95
2022-11-07T14:24:29.563Z,3.85
2022-11-07T14:27:05.132Z,3.13
2022-11-07T14:29:32.090Z,5.80
2022-11-07T14:32:04.373Z,5.15
2022-11-07T14:34:33.975Z,5.70
2022-11-07T14:37:01.625Z,3.95
2022-11-07T14:39:30.493Z,3.92
2022-11-07T14:41:58.355Z,5.93
2022-11-07T14:44:54.350Z,5.22
2022-11-07T14:47:35.092Z,5.13
2022-11-07T14:50:02.446Z,3.65
2022-11-07T14:52:38.934Z,5.63
2022-11-07T14:55:25.609Z,3.85
2022-11-07T14:57:52.398Z,4.93
2022-11-07T15:00:21.131Z,4.50
2022-11-07T15:02:49.841Z,4.88
2022-11-07T15:05:26.105Z,5.60
2022-11-07T15:07:52.917Z,4.35
2022-11-07T15:10:32.232Z,5.28
2022-11-07T15:13:02.109Z,4.40
2022-11-07T15:15:33.153Z,3.20
2022-11-07T15:18:02.016Z,4.80
2022-11-07T15:20:32.016Z,5.35
2022-11-07T15:23:19.860Z,5.00
2022-11-07T15:25:56.265Z,5.32
2022-11-07T15:28:27.954Z,4.22
2022-11-07T15:31:01.072Z,4.22
2022-11-07T15:33:30.762Z,4.63
2022-11-07T15:36:00.035Z,4.72
2022-11-07T15:38:28.511Z,3.63
2022-11-07T15:40:55.212Z,4.82
2022-11-07T15:43:21.882Z,3.45
2022-11-07T15:45:49.651Z,4.15
2022-11-07T15:48:19.174Z,4.80
2022-11-07T15:50:47.342Z,3.83
2022-11-07T15:53:28.116Z,3.65
2022-11-07T15:55:59.589Z,4.88
2022-11-07T15:58:28.045Z,4.05
2022-11-07T16:00:55.417Z,3.60
2022-11-07T16:03:24.229Z,4.15
2022-11-07T16:05:52.444Z,4.72
2022-11-07T16:08:23.960Z,2.92
2022-11-07T16:10:53.790Z,3.63
2022-11-07T16:13:20.649Z,3.35
2022-11-07T16:15:50.610Z,3.42
2022-11-07T16:18:20.201Z,2.92
2022-11-07T16:20:48.255Z,3.53
2022-11-07T16:23:16.102Z,3.40
2022-11-07T16:25:44.772Z,3.20
2022-11-07T16:28:26.713Z,3.67
2022-11-07T16:30:53.731Z,4.88
2022-11-07T16:33:20.399Z,4.90
2022-11-07T16:35:54.412Z,3.85
2022-11-07T16:38:23.213Z,4.15
2022-11-07T16:40:50.094Z,3.92
2022-11-07T16:43:16.695Z,3.58
2022-11-07T16:45:48.144Z,4.53
2022-11-07T16:48:32.563Z,2.58
2022-11-07T16:50:59.187Z,4.30
2022-11-07T16:53:26.043Z,2.95
2022-11-07T16:55:56.313Z,4.30
2022-11-07T16:58:24.281Z,2.63
2022-11-07T17:00:51.218Z,3.75
2022-11-07T17:03:18.503Z,3.25
2022-11-07T17:05:45.867Z,4.13
2022-11-07T17:08:21.258Z,3.13
2022-11-07T17:10:48.077Z,2.30
2022-11-07T17:13:14.717Z,4.55
2022-11-07T17:15:41.849Z,3.85
2022-11-07T17:18:25.350Z,3.10
2022-11-07T17:20:53.798Z,4.35
2022-11-07T17:23:26.850Z,2.67
2022-11-07T17:25:57.060Z,5.35
2022-11-07T17:28:23.597Z,3.33
2022-11-07T17:30:50.210Z,3.58
2022-11-07T17:33:16.858Z,4.28
2022-11-07T17:35:43.462Z,2.90
2022-11-07T17:38:16.393Z,3.00
2022-11-07T17:40:43.405Z,3.38
2022-11-07T17:43:09.947Z,3.70
2022-11-07T17:45:36.709Z,3.25
2022-11-07T17:48:03.514Z,3.20
2022-11-07T17:50:30.072Z,3.72
2022-11-07T17:52:56.681Z,3.40
2022-11-07T17:55:24.686Z,2.65
2022-11-07T17:57:51.410Z,4.30
2022-11-07T18:00:20.989Z,4.18
2022-11-07T18:02:49.635Z,3.80
2022-11-07T18:05:17.563Z,3.70
2022-11-07T18:07:44.780Z,3.28
2022-11-07T18:10:12.964Z,4.22
2022-11-07T18:12:39.544Z,3.40
2022-11-07T18:15:06.512Z,3.50
2022-11-07T18:17:35.487Z,2.20
2022-11-07T18:20:04.048Z,2.40
2022-11-07T18:22:30.626Z,3.40
2022-11-07T18:24:57.308Z,3.15
2022-11-07T18:27:23.865Z,2.58
2022-11-07T18:29:50.510Z,3.88
2022-11-07T18:32:17.514Z,4.00
2022-11-07T18:34:44.097Z,2.78
2022-11-07T18:37:10.741Z,2.50
2022-11-07T18:39:37.354Z,4.55
2022-11-07T18:42:03.977Z,2.90
2022-11-07T18:44:30.556Z,3.00
2022-11-07T18:46:57.121Z,3.08
2022-11-07T18:49:24.486Z,3.20
2022-11-07T18:51:51.081Z,2.95
2022-11-07T18:54:17.658Z,3.65
2022-11-07T18:56:44.290Z,4.03
2022-11-07T18:59:11.096Z,4.38
2022-11-07T19:01:37.822Z,4.38
2022-11-07T19:04:05.898Z,3.03
2022-11-07T19:06:33.042Z,4.32
2022-11-07T19:08:59.592Z,8.15
2022-11-07T19:11:31.253Z,3.90
2022-11-07T19:14:01.171Z,4.25
2022-11-07T19:16:28.152Z,3.17
2022-11-07T19:18:54.712Z,4.90
2022-11-07T19:21:23.368Z,4.38
2022-11-07T19:23:50.377Z,5.15
2022-11-07T19:26:19.123Z,5.35
2022-11-07T19:28:46.480Z,4.50
2022-11-07T19:31:13.224Z,3.85
2022-11-07T19:33:41.179Z,3.17
2022-11-07T19:36:12.594Z,5.50
2022-11-07T19:38:39.195Z,5.05
2022-11-07T19:41:06.992Z,6.65
2022-11-07T19:43:34.260Z,6.15
2022-11-07T19:46:09.017Z,2.65
2022-11-07T19:48:35.553Z,3.88
2022-11-07T19:51:09.307Z,4.03
2022-11-07T19:53:35.850Z,4.22
2022-11-07T19:56:11.558Z,5.38
2022-11-07T19:58:38.873Z,5.53
2022-11-07T20:01:19.555Z,4.47
2022-11-07T20:03:47.899Z,4.28
2022-11-07T20:06:16.594Z,4.07
2022-11-07T20:08:45.477Z,4.05
2022-11-07T20:11:17.949Z,5.05
2022-11-07T20:13:44.607Z,4.07
2022-11-07T20:16:11.377Z,5.50
2022-11-07T20:18:38.897Z,5.70
2022-11-07T20:21:08.172Z,3.83
2022-11-07T20:23:34.781Z,3.65
2022-11-07T20:26:05.585Z,4.93
2022-11-07T20:28:32.142Z,7.13
2022-11-07T20:30:58.694Z,7.43
2022-11-07T20:33:25.318Z,4.03
2022-11-07T20:36:02.904Z,3.72
2022-11-07T20:38:29.854Z,3.72
2022-11-07T20:40:56.723Z,4.20
2022-11-07T20:43:23.838Z,4.75
2022-11-07T20:45:50.598Z,4.40
2022-11-07T20:48:17.877Z,4.72
2022-11-07T20:50:44.855Z,2.95
2022-11-07T20:53:11.664Z,5.28
2022-11-07T20:55:42.677Z,2.85
2022-11-07T20:58:10.358Z,3.75
2022-11-07T21:00:38.891Z,3.22
2022-11-07T21:03:06.128Z,5.22
2022-11-07T21:05:32.976Z,5.35
2022-11-07T21:07:59.513Z,3.75
2022-11-07T21:10:26.064Z,4.20
2022-11-07T21:12:52.649Z,4.45
2022-11-07T21:15:19.241Z,8.65
2022-11-07T21:17:45.826Z,7.28
2022-11-07T21:20:12.410Z,3.25
2022-11-07T21:22:39.436Z,4.68
2022-11-07T21:25:06.891Z,3.88
2022-11-07T21:27:37.730Z,5.93
2022-11-07T21:30:05.625Z,5.38
2022-11-07T21:32:33.077Z,6.13
2022-11-07T21:34:59.659Z,4.10
2022-11-07T21:37:27.411Z,4.57
2022-11-07T21:39:53.998Z,3.13
2022-11-07T21:42:20.546Z,6.53
2022-11-07T21:44:47.161Z,4.13
2022-11-07T21:47:13.713Z,4.60
2022-11-07T21:49:40.258Z,4.90
2022-11-07T21:52:06.798Z,4.28
2022-11-07T21:54:33.346Z,3.90
2022-11-07T21:57:00.331Z,2.60
2022-11-07T21:59:27.076Z,3.45
2022-11-07T22:01:54.991Z,3.38
2022-11-07T22:04:21.670Z,3.15
2022-11-07T22:06:48.280Z,4.38
2022-11-07T22:09:19.819Z,4.57
2022-11-07T22:11:47.302Z,4.88
2022-11-07T22:14:15.845Z,3.50
2022-11-07T22:16:42.536Z,3.25
2022-11-07T22:19:12.460Z,2.95
2022-11-07T22:21:40.391Z,2.97
2022-11-07T22:24:07.264Z,4.35
2022-11-07T22:26:33.886Z,4.75
2022-11-07T22:29:00.457Z,2.58
2022-11-07T22:31:30.278Z,3.78
2022-11-07T22:33:58.654Z,4.97
2022-11-07T22:36:25.473Z,2.97
2022-11-07T22:38:52.041Z,3.92
2022-11-07T22:41:21.106Z,3.70
2022-11-07T22:43:48.162Z,3.60
2022-11-07T22:46:16.936Z,2.40
2022-11-07T22:48:44.721Z,3.03
2022-11-07T22:51:13.800Z,3.97
2022-11-07T22:53:40.761Z,3.38
2022-11-07T22:56:12.375Z,2.42
2022-11-07T22:58:39.253Z,2.38
2022-11-07T23:01:07.334Z,3.28
2022-11-07T23:03:33.914Z,4.85
2022-11-07T23:06:04.680Z,2.15
2022-11-07T23:08:33.469Z,3.08
2022-11-07T23:11:40.546Z,3.30
2022-11-07T23:14:00.396Z,2.47
2022-11-07T23:16:32.801Z,2.90
2022-11-07T23:19:01.644Z,3.00
2022-11-07T23:21:28.505Z,3.15
2022-11-07T23:23:57.560Z,2.75
2022-11-07T23:26:25.605Z,2.50
2022-11-07T23:28:52.372Z,3.00
2022-11-07T23:31:19.175Z,3.25
2022-11-07T23:33:45.805Z,2.53
2022-11-07T23:36:16.496Z,2.88
2022-11-07T23:38:43.806Z,2.92
2022-11-07T23:41:13.042Z,3.35
2022-11-07T23:43:39.695Z,2.83
2022-11-07T23:46:25.077Z,3.55
2022-11-07T23:49:14.337Z,2.22
2022-11-07T23:51:42.019Z,3.83
2022-11-07T23:54:27.173Z,3.10
2022-11-07T23:56:53.891Z,3.50
2022-11-07T23:59:49.933Z,4.53
